createdAt,value
2019-05-15T00:01:28.652Z,4.30
2019-05-15T00:03:58.524Z,4.30
2019-05-15T00:06:28.596Z,4.20
2019-05-15T00:08:58.897Z,4.20
2019-05-15T00:11:28.780Z,4.20
2019-05-15T00:13:58.968Z,4.20
2019-05-15T00:16:29.023Z,4.30
2019-05-15T00:18:59.056Z,4.30
2019-05-15T00:21:28.842Z,4.30
2019-05-15T00:23:58.668Z,4.20
2019-05-15T00:26:27.202Z,4.20
2019-05-15T00:29:07.624Z,4.10
2019-05-15T00:31:25.399Z,4.20
2019-05-15T00:33:53.639Z,4.20
2019-05-15T00:36:21.869Z,4.10
2019-05-15T00:38:50.118Z,4.00
2019-05-15T00:41:18.629Z,4.00
2019-05-15T00:43:49.212Z,4.00
2019-05-15T00:46:18.349Z,4.00
2019-05-15T00:48:48.728Z,3.90
2019-05-15T00:51:19.285Z,3.90
2019-05-15T00:53:48.286Z,4.00
2019-05-15T00:56:16.673Z,3.90
2019-05-15T00:58:44.896Z,4.00
2019-05-15T01:01:13.120Z,3.90
2019-05-15T01:03:41.313Z,3.90
2019-05-15T01:06:09.677Z,3.90
2019-05-15T01:08:39.285Z,3.80
2019-05-15T01:11:09.148Z,3.80
2019-05-15T01:13:38.806Z,3.80
2019-05-15T01:16:09.246Z,3.70
2019-05-15T01:18:38.496Z,3.70
2019-05-15T01:21:08.351Z,3.70
2019-05-15T01:23:39.019Z,3.60
2019-05-15T01:26:08.320Z,3.60
2019-05-15T01:28:38.414Z,3.60
2019-05-15T01:31:08.564Z,3.60
2019-05-15T01:33:38.811Z,3.60
2019-05-15T01:36:08.532Z,3.50
2019-05-15T01:38:38.943Z,3.40
2019-05-15T01:41:09.499Z,3.30
2019-05-15T01:43:38.061Z,3.30
2019-05-15T01:46:08.432Z,3.30
2019-05-15T01:48:38.827Z,3.30
2019-05-15T01:51:09.086Z,3.30
2019-05-15T01:53:38.521Z,3.20
2019-05-15T01:56:08.450Z,3.20
2019-05-15T01:58:38.242Z,3.20
2019-05-15T02:01:08.143Z,3.20
2019-05-15T02:03:38.677Z,3.10
2019-05-15T02:06:08.227Z,3.00
2019-05-15T02:08:39.119Z,3.00
2019-05-15T02:11:08.910Z,3.10
2019-05-15T02:13:38.704Z,3.00
2019-05-15T02:16:08.326Z,3.00
2019-05-15T02:18:38.871Z,2.90
2019-05-15T02:21:09.541Z,2.80
2019-05-15T02:23:38.837Z,2.80
2019-05-15T02:26:07.931Z,2.80
2019-05-15T02:28:38.358Z,2.90
2019-05-15T02:31:09.956Z,2.90
2019-05-15T02:33:39.546Z,2.80
2019-05-15T02:36:09.633Z,2.70
2019-05-15T02:38:40.450Z,2.70
2019-05-15T02:41:09.503Z,2.70
2019-05-15T02:43:38.948Z,2.70
2019-05-15T02:46:09.759Z,2.70
2019-05-15T02:48:36.292Z,2.70
2019-05-15T02:51:04.640Z,2.70
2019-05-15T02:53:32.925Z,2.70
2019-05-15T02:56:01.132Z,2.60
2019-05-15T02:58:29.559Z,2.60
2019-05-15T03:00:59.316Z,2.60
2019-05-15T03:03:29.530Z,2.60
2019-05-15T03:06:00.113Z,2.50
2019-05-15T03:08:29.775Z,2.60
2019-05-15T03:10:59.208Z,2.60
2019-05-15T03:13:29.841Z,2.60
2019-05-15T03:15:59.788Z,2.70
2019-05-15T03:18:28.933Z,2.70
2019-05-15T03:21:00.398Z,2.60
2019-05-15T03:23:29.635Z,2.60
2019-05-15T03:26:00.588Z,2.40
2019-05-15T03:28:29.490Z,2.40
2019-05-15T03:31:32.274Z,2.30
2019-05-15T03:33:35.789Z,2.30
2019-05-15T03:36:02.504Z,2.30
2019-05-15T03:38:29.740Z,2.30
2019-05-15T03:40:59.547Z,2.30
2019-05-15T03:43:29.273Z,2.30
2019-05-15T03:46:01.211Z,2.30
2019-05-15T03:48:28.881Z,2.30
2019-05-15T03:50:59.799Z,2.30
2019-05-15T03:53:29.776Z,2.30
2019-05-15T03:55:58.990Z,2.20
2019-05-15T03:58:28.764Z,2.20
2019-05-15T04:01:00.098Z,2.20
2019-05-15T04:03:30.022Z,2.20
2019-05-15T04:06:00.369Z,2.20
2019-05-15T04:08:29.782Z,2.20
2019-05-15T04:10:59.663Z,2.30
2019-05-15T04:13:29.919Z,2.30
2019-05-15T04:15:59.390Z,2.30
2019-05-15T04:18:29.029Z,2.30
2019-05-15T04:20:59.829Z,2.30
2019-05-15T04:23:29.786Z,2.30
2019-05-15T04:25:58.891Z,2.30
2019-05-15T04:28:29.450Z,3.00
2019-05-15T04:30:59.566Z,4.40
2019-05-15T04:33:29.318Z,5.60
2019-05-15T04:35:58.991Z,6.60
2019-05-15T04:38:29.172Z,7.80
2019-05-15T04:40:59.050Z,8.80
2019-05-15T04:43:30.160Z,9.30
2019-05-15T04:45:59.108Z,9.40
2019-05-15T04:48:28.972Z,9.80
2019-05-15T04:50:58.881Z,10.20
2019-05-15T04:53:32.729Z,10.80
2019-05-15T04:55:59.697Z,11.90
2019-05-15T04:58:29.670Z,12.60
2019-05-15T05:00:59.960Z,12.90
2019-05-15T05:03:29.307Z,13.80
2019-05-15T05:05:59.136Z,14.60
2019-05-15T05:08:28.962Z,15.20
2019-05-15T05:10:59.202Z,15.20
2019-05-15T05:13:28.692Z,14.10
2019-05-15T05:15:58.697Z,13.10
2019-05-15T05:18:29.528Z,11.80
2019-05-15T05:20:57.741Z,10.40
2019-05-15T05:23:28.377Z,9.30
2019-05-15T05:25:58.168Z,8.20
2019-05-15T05:28:28.759Z,7.50
2019-05-15T05:30:58.695Z,6.90
2019-05-15T05:33:28.424Z,6.50
2019-05-15T05:35:58.426Z,6.10
2019-05-15T05:38:28.149Z,5.60
2019-05-15T05:40:58.704Z,5.30
2019-05-15T05:43:26.839Z,5.10
2019-05-15T05:45:55.183Z,5.10
2019-05-15T05:48:23.431Z,5.20
2019-05-15T05:50:51.678Z,5.30
2019-05-15T05:53:21.151Z,5.40
2019-05-15T05:55:53.053Z,5.40
2019-05-15T05:58:20.028Z,5.60
2019-05-15T06:00:49.132Z,5.60
2019-05-15T06:03:19.798Z,5.50
2019-05-15T06:05:49.432Z,5.60
2019-05-15T06:08:19.453Z,5.60
2019-05-15T06:10:49.540Z,5.70
2019-05-15T06:13:18.611Z,5.80
2019-05-15T06:15:48.696Z,5.90
2019-05-15T06:18:19.729Z,6.10
2019-05-15T06:20:49.474Z,6.30
2019-05-15T06:23:22.858Z,6.40
2019-05-15T06:25:48.577Z,6.60
2019-05-15T06:28:19.696Z,6.80
2019-05-15T06:30:48.625Z,6.90
2019-05-15T06:33:18.793Z,7.00
2019-05-15T06:35:48.872Z,7.10
2019-05-15T06:38:19.349Z,7.10
2019-05-15T06:40:48.870Z,7.10
2019-05-15T06:43:19.246Z,7.20
2019-05-15T06:45:48.654Z,7.40
2019-05-15T06:48:18.348Z,7.50
2019-05-15T06:50:49.169Z,7.70
2019-05-15T06:53:19.198Z,8.00
2019-05-15T06:55:48.681Z,8.10
2019-05-15T06:58:19.043Z,8.40
2019-05-15T07:00:48.832Z,8.60
2019-05-15T07:03:24.823Z,8.70
2019-05-15T07:05:46.820Z,8.70
2019-05-15T07:08:18.015Z,8.80
2019-05-15T07:10:45.382Z,9.00
2019-05-15T07:13:13.762Z,9.00
2019-05-15T07:15:42.010Z,9.10
2019-05-15T07:18:10.327Z,9.20
2019-05-15T07:20:39.072Z,9.20
2019-05-15T07:23:08.819Z,9.20
2019-05-15T07:25:39.037Z,9.30
2019-05-15T07:28:08.791Z,9.40
2019-05-15T07:30:41.116Z,9.50
2019-05-15T07:33:08.795Z,9.60
2019-05-15T07:35:38.488Z,9.70
2019-05-15T07:38:08.020Z,9.80
2019-05-15T07:40:38.557Z,9.90
2019-05-15T07:43:09.419Z,10.00
2019-05-15T07:45:43.305Z,10.00
2019-05-15T07:48:09.185Z,10.20
2019-05-15T07:50:38.730Z,10.40
2019-05-15T07:53:08.812Z,10.40
2019-05-15T07:55:39.414Z,10.40
2019-05-15T07:58:08.480Z,10.40
2019-05-15T08:00:39.443Z,10.40
2019-05-15T08:03:09.980Z,10.50
2019-05-15T08:05:39.468Z,10.50
2019-05-15T08:08:08.833Z,10.60
2019-05-15T08:10:39.449Z,10.70
2019-05-15T08:13:08.920Z,10.70
2019-05-15T08:15:38.173Z,10.80
2019-05-15T08:18:12.011Z,10.90
2019-05-15T08:20:38.489Z,11.10
2019-05-15T08:23:08.491Z,11.20
2019-05-15T08:25:38.843Z,11.20
2019-05-15T08:28:08.861Z,11.30
2019-05-15T08:30:38.740Z,11.30
2019-05-15T08:33:08.358Z,11.30
2019-05-15T08:35:38.673Z,11.30
2019-05-15T08:38:08.813Z,11.10
2019-05-15T08:40:41.095Z,11.10
2019-05-15T08:43:11.401Z,11.10
2019-05-15T08:45:39.134Z,11.10
2019-05-15T08:48:09.343Z,11.00
2019-05-15T08:50:39.044Z,11.00
2019-05-15T08:53:08.344Z,11.00
2019-05-15T08:55:38.962Z,11.00
2019-05-15T08:58:13.234Z,11.10
2019-05-15T09:00:39.579Z,11.20
2019-05-15T09:03:08.686Z,11.30
2019-05-15T09:05:38.775Z,11.20
2019-05-15T09:08:09.122Z,11.20
2019-05-15T09:10:38.562Z,11.30
2019-05-15T09:13:09.397Z,11.40
2019-05-15T09:15:39.526Z,11.40
2019-05-15T09:18:14.936Z,11.50
2019-05-15T09:20:38.365Z,11.40
2019-05-15T09:23:08.966Z,11.50
2019-05-15T09:25:39.021Z,11.60
2019-05-15T09:28:08.681Z,11.70
2019-05-15T09:30:38.914Z,11.60
2019-05-15T09:33:08.668Z,11.70
2019-05-15T09:35:36.780Z,11.80
2019-05-15T09:38:05.059Z,11.80
2019-05-15T09:40:45.158Z,11.90
2019-05-15T09:43:03.223Z,11.80
2019-05-15T09:45:31.498Z,11.80
2019-05-15T09:47:59.715Z,11.90
2019-05-15T09:50:28.275Z,12.00
2019-05-15T09:52:58.834Z,12.10
2019-05-15T09:55:28.536Z,12.10
2019-05-15T09:57:58.975Z,12.10
2019-05-15T10:00:29.072Z,12.10
2019-05-15T10:02:56.876Z,12.00
2019-05-15T10:05:25.144Z,12.10
2019-05-15T10:07:53.359Z,12.20
2019-05-15T10:10:21.836Z,12.10
2019-05-15T10:12:50.081Z,12.10
2019-05-15T10:15:18.737Z,12.10
2019-05-15T10:17:50.733Z,12.40
2019-05-15T10:20:18.437Z,12.50
2019-05-15T10:22:48.420Z,12.50
2019-05-15T10:25:18.989Z,12.60
2019-05-15T10:27:48.819Z,12.70
2019-05-15T10:30:18.925Z,12.70
2019-05-15T10:32:48.670Z,12.80
2019-05-15T10:35:26.744Z,12.80
2019-05-15T10:37:48.854Z,12.90
2019-05-15T10:40:20.447Z,12.90
2019-05-15T10:42:49.484Z,12.90
2019-05-15T10:45:19.217Z,12.80
2019-05-15T10:47:49.635Z,12.70
2019-05-15T10:50:19.148Z,12.70
2019-05-15T10:52:48.934Z,12.70
2019-05-15T10:55:18.937Z,12.80
2019-05-15T10:57:47.539Z,12.90
2019-05-15T11:00:19.262Z,13.00
2019-05-15T11:02:48.985Z,13.20
2019-05-15T11:05:18.011Z,13.30
2019-05-15T11:07:48.217Z,13.40
2019-05-15T11:10:18.540Z,13.40
2019-05-15T11:12:49.834Z,13.40
2019-05-15T11:15:18.628Z,13.30
2019-05-15T11:17:49.225Z,13.20
2019-05-15T11:20:18.950Z,13.40
2019-05-15T11:22:49.964Z,13.30
2019-05-15T11:25:17.217Z,13.20
2019-05-15T11:27:48.200Z,13.40
2019-05-15T11:30:15.645Z,13.50
2019-05-15T11:32:43.968Z,13.60
2019-05-15T11:35:12.749Z,13.60
2019-05-15T11:37:45.720Z,13.70
2019-05-15T11:40:11.597Z,13.70
2019-05-15T11:42:39.849Z,13.70
2019-05-15T11:45:08.582Z,13.40
2019-05-15T11:47:39.661Z,13.40
2019-05-15T11:50:08.415Z,13.40
2019-05-15T11:52:40.103Z,13.40
2019-05-15T11:55:08.321Z,13.50
2019-05-15T11:57:43.529Z,13.70
2019-05-15T12:00:14.919Z,13.60
2019-05-15T12:02:39.731Z,13.70
2019-05-15T12:05:09.187Z,13.70
2019-05-15T12:07:38.304Z,13.80
2019-05-15T12:10:10.600Z,13.80
2019-05-15T12:12:38.566Z,13.90
2019-05-15T12:15:07.890Z,14.00
2019-05-15T12:17:38.851Z,14.00
2019-05-15T12:20:07.270Z,13.90
2019-05-15T12:22:38.927Z,14.00
2019-05-15T12:25:09.732Z,14.00
2019-05-15T12:27:39.551Z,14.00
2019-05-15T12:30:09.997Z,13.90
2019-05-15T12:32:39.915Z,13.90
2019-05-15T12:35:06.690Z,14.00
2019-05-15T12:37:35.436Z,14.00
2019-05-15T13:00:10.040Z,14.40
2019-05-15T13:02:38.684Z,14.30
2019-05-15T13:05:08.445Z,14.40
2019-05-15T13:07:37.962Z,14.30
2019-05-15T13:10:08.783Z,14.30
2019-05-15T13:12:47.707Z,14.50
2019-05-15T13:15:08.190Z,14.40
2019-05-15T13:17:38.788Z,14.40
2019-05-15T13:20:08.186Z,14.50
2019-05-15T13:22:39.252Z,14.50
2019-05-15T13:25:08.423Z,14.30
2019-05-15T13:27:38.264Z,14.40
2019-05-15T13:30:09.006Z,14.50
2019-05-15T13:32:40.620Z,14.50
2019-05-15T13:35:10.037Z,14.50
2019-05-15T13:37:38.883Z,14.60
2019-05-15T13:40:07.852Z,14.60
2019-05-15T13:42:38.765Z,14.70
2019-05-15T13:45:12.078Z,14.70
2019-05-15T13:47:38.718Z,14.50
2019-05-15T13:50:07.952Z,14.60
2019-05-15T13:52:39.072Z,14.70
2019-05-15T13:55:08.534Z,14.60
2019-05-15T13:57:38.274Z,14.60
2019-05-15T14:00:08.678Z,14.60
2019-05-15T14:02:38.588Z,14.60
2019-05-15T14:05:09.552Z,14.70
2019-05-15T14:07:48.952Z,14.80
2019-05-15T14:10:09.417Z,14.80
2019-05-15T14:12:38.573Z,14.90
2019-05-15T14:15:09.066Z,14.90
2019-05-15T14:17:37.717Z,14.80
2019-05-15T14:20:09.164Z,14.70
2019-05-15T14:22:39.030Z,14.60
2019-05-15T14:25:08.848Z,14.80
2019-05-15T14:27:39.717Z,14.70
2019-05-15T14:30:09.282Z,14.70
2019-05-15T14:32:53.364Z,14.70
2019-05-15T14:35:09.040Z,14.80
2019-05-15T14:37:37.696Z,14.90
2019-05-15T14:40:08.712Z,14.90
2019-05-15T14:42:39.591Z,15.00
2019-05-15T14:45:08.860Z,15.00
2019-05-15T14:47:38.704Z,14.90
2019-05-15T14:50:09.875Z,15.00
2019-05-15T14:52:38.589Z,15.10
2019-05-15T14:55:07.470Z,15.00
2019-05-15T14:57:38.892Z,15.00
2019-05-15T15:00:05.867Z,14.70
2019-05-15T15:02:34.217Z,14.70
2019-05-15T15:05:02.575Z,14.80
2019-05-15T15:07:31.770Z,14.80
2019-05-15T15:10:00.096Z,14.80
2019-05-15T15:12:28.510Z,14.70
2019-05-15T15:14:57.121Z,14.60
2019-05-15T15:17:25.489Z,14.80
2019-05-15T15:19:53.854Z,14.80
2019-05-15T15:22:22.247Z,14.90
2019-05-15T15:24:50.577Z,15.20
2019-05-15T15:27:18.993Z,15.30
2019-05-15T15:29:48.284Z,15.10
2019-05-15T15:32:16.852Z,14.90
2019-05-15T15:34:47.848Z,15.00
2019-05-15T15:37:16.125Z,15.20
2019-05-15T15:39:44.783Z,15.30
2019-05-15T15:42:13.766Z,15.40
2019-05-15T15:44:42.174Z,15.40
2019-05-15T15:47:10.576Z,15.40
2019-05-15T15:49:38.990Z,15.40
2019-05-15T15:52:08.760Z,15.10
2019-05-15T15:54:39.524Z,14.80
2019-05-15T15:57:08.465Z,14.80
2019-05-15T15:59:38.555Z,14.80
2019-05-15T16:02:08.935Z,14.80
2019-05-15T16:04:39.203Z,15.00
2019-05-15T16:07:09.360Z,15.10
2019-05-15T16:09:38.786Z,15.00
2019-05-15T16:12:09.686Z,14.90
2019-05-15T16:14:38.122Z,15.00
2019-05-15T16:17:08.614Z,15.10
2019-05-15T16:19:38.876Z,15.20
2019-05-15T16:22:08.842Z,15.20
2019-05-15T16:24:38.604Z,15.30
2019-05-15T16:27:09.627Z,15.30
2019-05-15T16:29:39.245Z,15.10
2019-05-15T16:32:08.704Z,15.00
2019-05-15T16:34:39.377Z,14.90
2019-05-15T16:37:08.888Z,14.80
2019-05-15T16:39:38.211Z,14.70
2019-05-15T16:42:09.166Z,14.70
2019-05-15T16:44:38.383Z,14.90
2019-05-15T16:47:08.443Z,15.10
2019-05-15T16:49:39.247Z,15.20
2019-05-15T16:52:09.243Z,15.40
2019-05-15T16:54:38.348Z,15.50
2019-05-15T16:57:09.977Z,15.70
2019-05-15T16:59:39.013Z,15.90
2019-05-15T17:02:08.793Z,16.00
2019-05-15T17:04:38.304Z,16.10
2019-05-15T17:07:07.193Z,16.00
2019-05-15T17:09:35.614Z,15.90
2019-05-15T17:12:04.326Z,15.90
2019-05-15T17:14:32.729Z,15.80
2019-05-15T17:17:02.289Z,15.60
2019-05-15T17:19:30.734Z,15.30
2019-05-15T17:21:59.149Z,15.30
2019-05-15T17:24:27.519Z,15.20
2019-05-15T17:26:55.955Z,15.10
2019-05-15T17:29:25.163Z,15.00
2019-05-15T17:31:54.146Z,14.80
2019-05-15T17:34:23.060Z,14.70
2019-05-15T17:36:53.822Z,14.60
2019-05-15T17:39:34.726Z,14.60
2019-05-15T17:41:52.923Z,14.60
2019-05-15T17:44:21.654Z,14.60
2019-05-15T17:46:50.106Z,14.50
2019-05-15T17:49:18.549Z,14.50
2019-05-15T17:51:48.812Z,14.50
2019-05-15T17:54:18.215Z,14.40
2019-05-15T17:56:49.968Z,14.30
2019-05-15T17:59:19.034Z,14.20
2019-05-15T18:01:49.170Z,14.10
2019-05-15T18:04:18.883Z,14.10
2019-05-15T18:06:48.400Z,14.10
2019-05-15T18:09:18.810Z,14.10
2019-05-15T18:11:47.724Z,14.00
2019-05-15T18:14:16.536Z,13.90
2019-05-15T18:16:48.770Z,13.90
2019-05-15T18:19:18.870Z,13.90
2019-05-15T18:21:49.771Z,13.90
2019-05-15T18:24:18.588Z,13.80
2019-05-15T18:26:48.892Z,13.80
2019-05-15T18:29:17.188Z,13.80
2019-05-15T18:31:48.061Z,13.80
2019-05-15T18:34:18.832Z,13.80
2019-05-15T18:36:48.465Z,13.80
2019-05-15T18:39:17.066Z,13.70
2019-05-15T18:41:48.333Z,13.70
2019-05-15T18:44:18.486Z,13.60
2019-05-15T18:46:48.712Z,13.50
2019-05-15T18:49:17.947Z,13.40
2019-05-15T18:51:47.931Z,13.50
2019-05-15T18:54:19.273Z,13.40
2019-05-15T18:56:50.720Z,13.30
2019-05-15T18:59:21.777Z,13.20
2019-05-15T19:01:51.966Z,13.10
2019-05-15T19:04:21.056Z,13.00
2019-05-15T19:06:50.160Z,12.90
2019-05-15T19:09:23.560Z,12.90
2019-05-15T19:11:53.909Z,12.80
2019-05-15T19:14:22.415Z,12.80
2019-05-15T19:16:52.195Z,12.70
2019-05-15T19:19:22.585Z,12.70
2019-05-15T19:21:51.249Z,12.60
2019-05-15T19:24:20.559Z,12.60
2019-05-15T19:26:51.268Z,12.60
2019-05-15T19:29:20.000Z,12.50
2019-05-15T19:31:49.797Z,12.50
2019-05-15T19:34:19.770Z,12.40
2019-05-15T19:36:48.777Z,12.40
2019-05-15T19:39:18.632Z,12.30
2019-05-15T19:41:47.883Z,12.20
2019-05-15T19:44:17.996Z,12.20
2019-05-15T19:46:48.050Z,12.20
2019-05-15T19:49:17.970Z,12.20
2019-05-15T19:51:48.678Z,12.10
2019-05-15T19:54:18.389Z,12.10
2019-05-15T19:56:48.170Z,12.10
2019-05-15T19:59:21.873Z,12.10
2019-05-15T20:01:48.593Z,12.00
2019-05-15T20:04:18.529Z,12.10
2019-05-15T20:06:47.975Z,12.10
2019-05-15T20:09:18.295Z,12.10
2019-05-15T20:11:47.870Z,12.10
2019-05-15T20:14:18.335Z,12.00
2019-05-15T20:16:48.099Z,12.00
2019-05-15T20:19:18.208Z,12.10
2019-05-15T20:21:47.937Z,12.10
2019-05-15T20:24:18.201Z,12.20
2019-05-15T20:26:48.580Z,12.20
2019-05-15T20:29:18.163Z,12.10
2019-05-15T20:31:48.391Z,12.00
2019-05-15T20:34:16.897Z,12.00
2019-05-15T20:36:45.760Z,12.00
2019-05-15T20:39:14.133Z,11.90
2019-05-15T20:41:42.576Z,11.90
2019-05-15T20:44:11.876Z,11.90
2019-05-15T20:46:40.329Z,11.80
2019-05-15T20:49:08.737Z,11.80
2019-05-15T20:51:38.899Z,11.80
2019-05-15T20:54:08.338Z,11.80
2019-05-15T20:56:38.442Z,11.80
2019-05-15T20:59:08.943Z,11.90
2019-05-15T21:01:37.511Z,11.80
2019-05-15T21:04:16.925Z,11.70
2019-05-15T21:06:37.647Z,11.70
2019-05-15T21:09:08.269Z,11.70
2019-05-15T21:11:39.488Z,11.70
2019-05-15T21:14:08.543Z,11.60
2019-05-15T21:16:36.238Z,11.60
2019-05-15T21:19:04.612Z,11.50
2019-05-15T21:21:32.914Z,11.40
2019-05-15T21:24:01.182Z,11.40
2019-05-15T21:26:29.591Z,11.40
2019-05-15T21:28:58.620Z,11.40
2019-05-15T21:31:27.301Z,11.40
2019-05-15T21:33:55.587Z,11.30
2019-05-15T21:36:23.982Z,11.30
2019-05-15T21:38:53.348Z,11.20
2019-05-15T21:41:23.479Z,11.20
2019-05-15T21:43:51.751Z,11.20
2019-05-15T21:46:20.018Z,11.30
2019-05-15T21:48:48.716Z,11.30
2019-05-15T21:51:18.685Z,11.30
2019-05-15T21:53:47.732Z,11.40
2019-05-15T21:56:18.609Z,11.40
2019-05-15T21:58:48.283Z,11.40
2019-05-15T22:01:19.691Z,11.40
2019-05-15T22:03:48.183Z,11.30
2019-05-15T22:06:18.524Z,11.30
2019-05-15T22:08:47.275Z,11.20
2019-05-15T22:11:18.629Z,11.30
2019-05-15T22:13:48.044Z,11.30
2019-05-15T22:16:18.082Z,11.20
2019-05-15T22:18:47.824Z,11.10
2019-05-15T22:21:18.611Z,11.10
2019-05-15T22:23:47.152Z,11.10
2019-05-15T22:26:18.480Z,11.10
2019-05-15T22:28:45.513Z,11.10
2019-05-15T22:31:16.406Z,11.10
2019-05-15T22:33:44.685Z,11.00
2019-05-15T22:36:12.956Z,11.10
2019-05-15T22:38:41.213Z,11.00
2019-05-15T22:41:11.465Z,11.00
2019-05-15T22:43:39.768Z,10.90
2019-05-15T22:46:10.841Z,11.00
2019-05-15T22:48:38.172Z,11.00
2019-05-15T22:51:06.457Z,11.00
2019-05-15T22:53:34.726Z,11.00
2019-05-15T22:56:02.947Z,10.90
2019-05-15T22:58:31.243Z,10.90
2019-05-15T23:00:59.861Z,10.90
2019-05-15T23:03:28.417Z,10.80
2019-05-15T23:05:58.184Z,10.90
2019-05-15T23:08:28.857Z,10.80
2019-05-15T23:10:58.744Z,10.80
2019-05-15T23:13:28.614Z,10.80
2019-05-15T23:15:58.475Z,10.80
2019-05-15T23:18:26.660Z,10.70
2019-05-15T23:20:54.896Z,10.70
2019-05-15T23:23:23.163Z,10.70
2019-05-15T23:25:51.379Z,10.70
2019-05-15T23:28:19.631Z,10.80
2019-05-15T23:30:48.519Z,10.70
2019-05-15T23:33:18.719Z,10.60
2019-05-15T23:35:48.538Z,10.60
2019-05-15T23:38:17.012Z,10.50
2019-05-15T23:40:45.260Z,10.50
2019-05-15T23:43:13.582Z,10.50
2019-05-15T23:45:41.866Z,10.50
2019-05-15T23:48:11.328Z,10.50
2019-05-15T23:50:40.531Z,10.50
2019-05-15T23:53:08.830Z,10.50
2019-05-15T23:55:37.453Z,10.50
2019-05-15T23:58:05.698Z,10.50
